Terminal Aerodrome Forecast
Issued by NWS Blacksburg, VA

Current Version | Previous Version | Text Only | Print | Product List | Glossary On
Versions: 1 2 3 4 5 6 7 8 9 10 11 12 13 14 15 16 17 18 19 20 21 22 23 24 25 26 27 28 29 30
092
FTUS41 KRNK 231419 AAA
TAFLYH
TAF AMD
KLYH 231419Z 2314/2412 20008KT P6SM VCSH BKN007 OVC015
     FM231700 21009KT P6SM BKN040
     FM231800 23010G18KT P6SM BKN060
     FM240100 21009KT P6SM SCT050
     FM240800 22015G25KT 4SM -SHRA OVC030=

USA.gov is the U.S. government's official web portal to all federal, state and local government web resources and services.